Time;durP1;ratioP1;P1;durP2;ratioP2;P2;SDS_P1;SDS_P2;PMS_P1;PMS_P2;Temp;Humidity;BMP_temperature;BMP_pressure;BME280_temperature;BME280_humidity;BME280_pressure;Samples;Min_cycle;Max_cycle;Signal;HPM_P1;HPM_P2
2022/11/19 00:00:48;;;;;;;2.50;2.23;;;9.50;99.90;;;;;;5013773;28;20414;-73
2022/11/19 00:03:16;;;;;;;3.20;2.00;;;9.60;99.90;;;;;;5014152;28;20533;-73
2022/11/19 00:05:44;;;;;;;2.27;1.67;;;9.40;99.90;;;;;;5013686;28;20165;-73
2022/11/19 00:08:13;;;;;;;1.90;1.70;;;9.30;99.90;;;;;;5014201;28;20415;-73
2022/11/19 00:10:38;;;;;;;1.80;1.70;;;9.40;99.90;;;;;;5012015;28;20951;-72
2022/11/19 00:13:06;;;;;;;2.80;1.80;;;9.60;99.90;;;;;;5011502;28;20411;-72
2022/11/19 00:15:34;;;;;;;4.33;1.90;;;9.70;99.90;;;;;;5012718;28;20179;-72
2022/11/19 00:17:59;;;;;;;2.37;1.60;;;9.70;99.90;;;;;;5013239;28;20483;-72
2022/11/19 00:20:27;;;;;;;1.77;1.67;;;9.50;99.90;;;;;;5013699;28;20482;-72
2022/11/19 00:22:55;;;;;;;4.33;2.90;;;9.50;99.90;;;;;;5013361;28;20297;-72
2022/11/19 00:25:22;;;;;;;5.30;3.53;;;9.60;99.90;;;;;;5013086;28;20407;-72
2022/11/19 00:27:49;;;;;;;7.03;3.00;;;9.70;99.90;;;;;;5012690;28;20474;-75
2022/11/19 00:30:15;;;;;;;3.00;2.37;;;9.70;99.90;;;;;;5012576;28;20907;-74
2022/11/19 00:32:41;;;;;;;3.60;2.50;;;9.70;99.90;;;;;;5013189;28;20493;-73
2022/11/19 00:35:07;;;;;;;2.63;2.43;;;9.80;99.90;;;;;;5013057;28;20407;-73
2022/11/19 00:37:32;;;;;;;2.40;1.90;;;9.90;99.90;;;;;;5013279;28;20193;-73
2022/11/19 00:39:58;;;;;;;4.73;2.30;;;9.80;99.90;;;;;;5013041;28;20415;-73
2022/11/19 00:42:24;;;;;;;2.90;1.87;;;9.80;99.90;;;;;;5013334;28;20187;-73
2022/11/19 00:44:49;;;;;;;2.30;2.10;;;9.90;99.90;;;;;;5013008;28;20165;-72
2022/11/19 00:47:15;;;;;;;5.17;2.70;;;9.90;99.90;;;;;;5012510;28;20185;-73
2022/11/19 00:49:41;;;;;;;3.40;1.80;;;9.90;99.90;;;;;;5013151;28;20405;-73
2022/11/19 00:52:07;;;;;;;3.63;2.03;;;9.80;99.90;;;;;;5023482;28;20588;-72
2022/11/19 00:54:32;;;;;;;4.93;2.27;;;9.90;99.90;;;;;;5032817;28;20526;-73
2022/11/19 00:56:58;;;;;;;3.40;2.27;;;9.90;99.90;;;;;;5032431;28;20711;-73
2022/11/19 00:59:24;;;;;;;2.90;2.17;;;9.90;99.90;;;;;;5032550;28;20171;-72
2022/11/19 01:01:49;;;;;;;1.43;1.33;;;9.90;99.90;;;;;;5032179;28;20180;-73
2022/11/19 01:04:15;;;;;;;1.97;1.67;;;9.80;99.90;;;;;;5032799;28;20163;-73
2022/11/19 01:06:40;;;;;;;1.83;1.23;;;9.80;99.90;;;;;;5032375;28;20168;-73
2022/11/19 01:09:06;;;;;;;1.93;1.23;;;9.70;99.90;;;;;;5032954;28;20175;-73
2022/11/19 01:11:34;;;;;;;1.97;1.30;;;9.70;99.90;;;;;;5032854;28;20163;-72
2022/11/19 01:14:02;;;;;;;1.90;1.07;;;9.70;99.90;;;;;;5032469;28;20159;-73
2022/11/19 01:16:37;;;;;;;1.50;1.30;;;9.70;99.90;;;;;;5032063;28;20434;-73
2022/11/19 01:19:04;;;;;;;1.10;0.80;;;9.70;99.90;;;;;;5032253;28;20966;-72
2022/11/19 01:21:32;;;;;;;1.27;1.00;;;9.70;99.90;;;;;;5030900;28;20421;-73
2022/11/19 01:23:59;;;;;;;2.80;1.00;;;9.70;99.90;;;;;;5032389;28;20451;-73
2022/11/19 01:26:25;;;;;;;1.10;1.00;;;9.60;99.90;;;;;;5034075;28;20517;-72
2022/11/19 01:28:52;;;;;;;1.67;1.30;;;9.50;99.90;;;;;;5036177;28;20431;-73
2022/11/19 01:31:20;;;;;;;1.13;0.93;;;9.60;99.90;;;;;;5026922;28;20415;-72
2022/11/19 01:33:47;;;;;;;1.00;0.90;;;9.60;99.90;;;;;;5016071;28;20948;-72
2022/11/19 01:36:15;;;;;;;1.20;0.90;;;9.70;99.90;;;;;;5016644;28;20414;-73
2022/11/19 01:38:41;;;;;;;0.80;0.80;;;9.70;99.90;;;;;;5016131;28;20437;-73
2022/11/19 01:41:08;;;;;;;1.43;1.10;;;9.60;99.90;;;;;;5016331;28;20490;-73
2022/11/19 01:43:42;;;;;;;1.60;0.77;;;9.50;99.90;;;;;;5016614;28;20460;-73
2022/11/19 01:46:10;;;;;;;0.90;0.70;;;9.40;99.90;;;;;;5015875;28;20891;-72
2022/11/19 01:48:39;;;;;;;1.60;0.80;;;9.40;99.90;;;;;;5015978;28;20478;-72
2022/11/19 01:51:12;;;;;;;1.10;1.00;;;9.40;99.90;;;;;;5016250;28;20890;-72
2022/11/19 01:53:39;;;;;;;1.20;1.10;;;9.40;99.90;;;;;;5016251;28;20863;-72
2022/11/19 01:56:07;;;;;;;1.10;0.90;;;9.40;99.90;;;;;;5015807;28;20399;-72
2022/11/19 01:58:37;;;;;;;1.73;0.80;;;9.30;99.90;;;;;;5015574;28;20443;-72
2022/11/19 02:01:04;;;;;;;1.67;1.00;;;9.40;99.90;;;;;;5015449;28;20410;-72
2022/11/19 02:03:31;;;;;;;1.03;0.93;;;9.30;99.90;;;;;;5015118;28;20452;-72
2022/11/19 02:05:59;;;;;;;4.10;1.10;;;9.30;99.90;;;;;;5015441;28;20441;-72
2022/11/19 02:08:51;;;;;;;1.30;0.70;;;9.30;99.90;;;;;;5015303;28;20427;-72
2022/11/19 02:11:39;;;;;;;2.43;1.00;;;9.30;99.90;;;;;;5013590;28;20419;-72
2022/11/19 02:14:40;;;;;;;1.33;1.23;;;9.20;99.90;;;;;;5015498;28;20411;-72
2022/11/19 02:17:12;;;;;;;2.03;1.10;;;9.20;99.90;;;;;;5008984;28;20446;-72
2022/11/19 02:19:59;;;;;;;2.57;1.30;;;9.10;99.90;;;;;;5013935;28;20415;-72
2022/11/19 02:23:02;;;;;;;2.30;1.40;;;9.10;99.90;;;;;;5015535;28;20439;-72
2022/11/19 02:25:30;;;;;;;1.80;1.30;;;9.20;99.90;;;;;;5014975;28;20412;-72
2022/11/19 02:28:21;;;;;;;2.70;1.40;;;9.30;99.90;;;;;;5015182;28;20418;-72
2022/11/19 02:30:52;;;;;;;2.57;1.37;;;9.40;99.90;;;;;;5014542;28;20409;-73
2022/11/19 02:33:22;;;;;;;3.00;1.23;;;9.30;99.90;;;;;;5014579;28;20422;-72
2022/11/19 02:35:59;;;;;;;1.60;1.20;;;9.40;99.90;;;;;;5032492;28;20421;-72
2022/11/19 02:38:24;;;;;;;1.73;1.30;;;9.30;99.90;;;;;;5034224;28;20792;-72
2022/11/19 02:41:32;;;;;;;2.97;1.33;;;9.40;99.90;;;;;;5034426;28;20406;-72
2022/11/19 02:44:57;;;;;;;1.60;1.27;;;9.40;99.90;;;;;;5034020;28;20202;-72
2022/11/19 02:46:37;;;;;;;1.50;1.20;;;9.40;99.90;;;;;;5034083;28;20761;-72
2022/11/19 02:49:03;;;;;;;1.50;1.30;;;9.50;99.90;;;;;;5034605;28;20429;-72
2022/11/19 02:51:29;;;;;;;2.30;1.53;;;9.50;99.90;;;;;;5034387;28;20159;-71
2022/11/19 02:53:56;;;;;;;2.13;1.53;;;9.50;99.90;;;;;;5034425;28;20451;-72
2022/11/19 02:56:45;;;;;;;1.50;1.23;;;9.60;99.90;;;;;;5034468;28;20177;-72
2022/11/19 03:04:43;;;;;;;4.20;1.47;;;9.60;99.90;;;;;;5034594;28;20422;-72
2022/11/19 03:07:16;;;;;;;1.60;1.33;;;9.70;99.90;;;;;;5034137;28;20424;-72
2022/11/19 03:09:49;;;;;;;2.30;1.67;;;9.70;99.90;;;;;;5034459;28;20186;-72
2022/11/19 03:12:45;;;;;;;1.80;1.27;;;9.70;99.90;;;;;;5034074;28;20755;-72
2022/11/19 03:18:21;;;;;;;1.60;1.50;;;9.80;99.90;;;;;;5033668;28;20433;-72
2022/11/19 03:21:03;;;;;;;4.10;1.30;;;9.80;99.90;;;;;;5034493;28;20390;-72
2022/11/19 03:23:33;;;;;;;1.47;1.37;;;9.70;99.90;;;;;;5034160;28;20445;-72
2022/11/19 03:26:08;;;;;;;1.60;1.50;;;9.70;99.90;;;;;;5034295;28;20394;-72
2022/11/19 03:28:37;;;;;;;2.10;1.60;;;9.70;99.90;;;;;;5032565;28;20438;-72
2022/11/19 03:31:04;;;;;;;1.80;1.70;;;9.80;99.90;;;;;;5033290;28;20509;-72
2022/11/19 03:36:06;;;;;;;1.70;1.50;;;9.90;99.90;;;;;;5045280;23;20474;-72
2022/11/19 03:38:37;;;;;;;2.30;2.10;;;9.80;99.90;;;;;;5034420;28;20423;-73
2022/11/19 03:41:05;;;;;;;5.10;2.17;;;9.70;99.90;;;;;;5034441;28;20839;-72
2022/11/19 03:43:35;;;;;;;2.20;1.47;;;9.70;99.90;;;;;;5032809;28;21036;-72
2022/11/19 03:46:03;;;;;;;3.10;1.80;;;9.70;99.90;;;;;;5034002;28;20429;-72
2022/11/19 03:48:30;;;;;;;1.87;1.40;;;9.70;99.90;;;;;;5033722;28;20398;-72
2022/11/19 03:51:12;;;;;;;1.93;1.40;;;9.70;99.90;;;;;;5040043;28;20413;-72
2022/11/19 03:53:38;;;;;;;2.60;1.90;;;9.80;99.90;;;;;;5040038;28;20378;-72
2022/11/19 03:56:10;;;;;;;3.03;1.63;;;9.80;99.90;;;;;;5038998;28;20433;-72
2022/11/19 03:58:41;;;;;;;3.33;1.83;;;9.90;99.90;;;;;;5039150;28;20401;-72
2022/11/19 04:01:07;;;;;;;2.00;1.80;;;9.90;99.90;;;;;;5036945;28;20454;-73
2022/11/19 04:03:33;;;;;;;2.30;1.50;;;9.90;99.90;;;;;;5035469;28;20441;-72
2022/11/19 04:05:59;;;;;;;1.77;1.50;;;9.80;99.90;;;;;;5037195;28;20464;-72
2022/11/19 04:08:24;;;;;;;4.20;1.50;;;9.90;99.90;;;;;;5040023;28;20280;-72
2022/11/19 04:10:50;;;;;;;1.77;1.50;;;9.90;99.90;;;;;;5044516;28;20235;-72
2022/11/19 04:13:15;;;;;;;2.03;1.60;;;9.90;99.90;;;;;;5040341;28;20168;-72
2022/11/19 04:15:41;;;;;;;1.80;1.70;;;9.80;99.90;;;;;;5033392;28;20210;-72
2022/11/19 04:18:07;;;;;;;2.60;1.60;;;9.80;99.90;;;;;;5032597;28;20167;-72
2022/11/19 04:20:32;;;;;;;1.57;1.47;;;9.70;99.90;;;;;;5033151;28;20491;-72
2022/11/19 04:22:58;;;;;;;1.70;1.60;;;9.80;99.90;;;;;;5033134;28;20227;-72
2022/11/19 04:25:24;;;;;;;2.60;1.70;;;9.80;99.90;;;;;;5033176;28;20652;-72
2022/11/19 04:27:49;;;;;;;1.63;1.53;;;9.70;99.90;;;;;;5033169;28;20664;-72
2022/11/19 04:30:15;;;;;;;2.10;1.67;;;9.70;99.90;;;;;;5032722;28;20544;-72
2022/11/19 04:32:42;;;;;;;1.60;1.43;;;9.80;99.90;;;;;;5031660;28;20592;-72
2022/11/19 04:35:08;;;;;;;4.40;2.10;;;9.80;99.90;;;;;;5032439;28;20446;-71
2022/11/19 04:37:34;;;;;;;2.13;1.63;;;9.80;99.90;;;;;;5032841;28;20421;-72
2022/11/19 04:39:59;;;;;;;2.03;1.60;;;9.80;99.90;;;;;;5032599;28;20422;-72
2022/11/19 04:42:25;;;;;;;1.50;1.40;;;9.60;99.90;;;;;;5032706;28;20737;-72
2022/11/19 04:44:50;;;;;;;1.80;1.70;;;9.70;99.90;;;;;;5033006;28;20187;-72
2022/11/19 04:47:16;;;;;;;1.70;1.33;;;9.70;99.90;;;;;;5032113;28;20656;-72
2022/11/19 04:49:41;;;;;;;3.20;1.77;;;9.60;99.90;;;;;;5032788;28;20173;-72
2022/11/19 04:52:07;;;;;;;2.67;1.57;;;9.70;99.90;;;;;;5032975;28;20170;-72
2022/11/19 04:54:33;;;;;;;2.27;1.90;;;9.70;99.90;;;;;;5032839;28;20194;-72
2022/11/19 04:56:58;;;;;;;2.50;2.30;;;9.70;99.90;;;;;;5032414;28;20172;-71
2022/11/19 04:59:24;;;;;;;2.43;1.50;;;9.70;99.90;;;;;;5032948;28;20168;-72
2022/11/19 05:01:50;;;;;;;6.10;1.67;;;9.70;99.90;;;;;;5035867;28;20173;-72
2022/11/19 05:04:16;;;;;;;1.63;1.40;;;9.80;99.90;;;;;;5036239;28;20363;-72
2022/11/19 05:06:41;;;;;;;1.53;1.43;;;9.80;99.90;;;;;;5036309;28;20446;-73
2022/11/19 05:09:07;;;;;;;1.90;1.60;;;9.80;99.90;;;;;;5038752;28;20233;-72
2022/11/19 05:11:32;;;;;;;3.27;1.93;;;9.80;99.90;;;;;;5034913;28;20666;-72
2022/11/19 05:13:58;;;;;;;2.10;1.83;;;9.80;99.90;;;;;;5034882;28;20227;-72
2022/11/19 05:16:24;;;;;;;2.17;1.97;;;9.80;99.90;;;;;;5035560;28;20207;-73
2022/11/19 05:18:49;;;;;;;3.07;1.93;;;9.80;99.90;;;;;;5036285;28;20195;-72
2022/11/19 05:21:15;;;;;;;2.63;1.80;;;9.90;99.90;;;;;;5035999;28;20182;-71
2022/11/19 05:23:40;;;;;;;2.60;2.13;;;9.80;99.90;;;;;;5035776;28;20208;-72
2022/11/19 05:26:06;;;;;;;2.13;1.93;;;9.80;99.90;;;;;;5035763;28;20195;-72
2022/11/19 05:28:32;;;;;;;2.60;2.00;;;9.80;99.90;;;;;;5034939;28;20178;-72
2022/11/19 05:30:58;;;;;;;1.83;1.70;;;9.70;99.90;;;;;;5035972;28;20176;-72
2022/11/19 05:33:23;;;;;;;1.90;1.77;;;9.70;99.90;;;;;;5034496;28;20206;-72
2022/11/19 05:35:49;;;;;;;1.97;1.80;;;9.80;99.90;;;;;;5034207;28;20456;-72
2022/11/19 05:38:15;;;;;;;2.30;2.10;;;9.80;99.90;;;;;;5035859;28;20186;-72
2022/11/19 05:40:43;;;;;;;1.80;1.70;;;9.70;99.90;;;;;;5035530;28;20261;-72
2022/11/19 05:43:09;;;;;;;3.10;2.30;;;9.60;99.90;;;;;;5034090;28;20672;-72
2022/11/19 05:45:34;;;;;;;1.87;1.77;;;9.60;99.90;;;;;;5035349;28;20459;-72
2022/11/19 05:48:00;;;;;;;1.80;1.70;;;9.60;99.90;;;;;;5034825;28;20191;-72
2022/11/19 05:50:26;;;;;;;2.23;2.00;;;9.70;99.90;;;;;;5035530;28;20178;-72
2022/11/19 05:52:51;;;;;;;1.30;1.20;;;9.80;99.90;;;;;;5035358;28;20174;-72
2022/11/19 05:55:17;;;;;;;1.87;1.70;;;9.80;99.90;;;;;;5035205;28;20223;-72
2022/11/19 05:57:43;;;;;;;2.70;2.10;;;9.70;99.90;;;;;;5035172;28;20523;-72
2022/11/19 06:00:10;;;;;;;2.10;1.90;;;9.70;99.90;;;;;;5035179;28;20179;-72
2022/11/19 06:02:35;;;;;;;2.13;1.93;;;9.90;99.90;;;;;;5034473;28;20660;-72
2022/11/19 06:05:01;;;;;;;1.77;1.60;;;9.90;99.90;;;;;;5035144;28;20489;-72
2022/11/19 06:07:27;;;;;;;2.73;2.50;;;9.90;99.90;;;;;;5034964;28;20164;-72
2022/11/19 06:09:52;;;;;;;2.03;1.70;;;9.90;99.90;;;;;;5035176;28;20614;-72
2022/11/19 06:12:18;;;;;;;1.70;1.37;;;9.90;99.90;;;;;;5034095;28;20172;-72
2022/11/19 06:14:44;;;;;;;3.63;1.93;;;9.90;99.90;;;;;;5035065;28;20188;-72
2022/11/19 06:17:09;;;;;;;2.80;2.10;;;9.90;99.90;;;;;;5034419;28;20179;-72
2022/11/19 06:19:35;;;;;;;1.70;1.60;;;9.80;99.90;;;;;;5035108;28;20181;-72
2022/11/19 06:22:00;;;;;;;2.53;1.40;;;9.80;99.90;;;;;;5034748;28;20549;-72
2022/11/19 06:24:26;;;;;;;2.23;1.80;;;9.70;99.90;;;;;;5034718;28;20171;-72
2022/11/19 06:26:52;;;;;;;1.43;1.33;;;9.80;99.90;;;;;;5034930;28;20171;-72
2022/11/19 06:29:18;;;;;;;1.77;1.67;;;9.80;99.90;;;;;;5034702;28;20171;-72
2022/11/19 06:31:44;;;;;;;1.83;1.73;;;9.80;99.90;;;;;;5033647;28;20631;-73
2022/11/19 06:34:10;;;;;;;2.67;2.13;;;9.80;99.90;;;;;;5034407;28;20788;-72
2022/11/19 06:36:36;;;;;;;1.77;1.53;;;9.80;99.90;;;;;;5034230;28;20501;-72
2022/11/19 06:39:01;;;;;;;1.73;1.63;;;9.70;99.90;;;;;;5034482;28;20183;-72
2022/11/19 06:41:27;;;;;;;1.50;1.30;;;9.70;99.90;;;;;;5034607;28;20228;-73
2022/11/19 06:43:53;;;;;;;2.60;1.40;;;9.70;99.90;;;;;;5034149;28;20212;-72
2022/11/19 06:46:18;;;;;;;1.77;1.63;;;9.70;99.90;;;;;;5034061;28;20227;-73
2022/11/19 06:48:44;;;;;;;2.90;2.60;;;9.70;99.90;;;;;;5034046;28;20231;-72
2022/11/19 06:51:09;;;;;;;1.87;1.77;;;9.60;99.90;;;;;;5032960;28;20610;-72
2022/11/19 06:53:35;;;;;;;2.27;2.07;;;9.50;99.90;;;;;;5034735;28;20172;-72
2022/11/19 06:56:04;;;;;;;3.53;2.30;;;9.60;99.90;;;;;;5034133;28;20196;-74
2022/11/19 06:58:30;;;;;;;1.93;1.73;;;9.70;99.90;;;;;;5034723;28;20180;-74
2022/11/19 07:00:56;;;;;;;2.30;2.03;;;9.70;99.90;;;;;;5034282;28;20505;-74
2022/11/19 07:03:22;;;;;;;3.27;2.97;;;9.70;99.90;;;;;;5033642;28;21050;-74
2022/11/19 07:05:49;;;;;;;3.10;2.70;;;9.80;99.90;;;;;;5034092;28;20814;-74
2022/11/19 07:08:15;;;;;;;2.70;2.50;;;9.70;99.90;;;;;;5034484;28;20460;-74
2022/11/19 07:10:42;;;;;;;3.43;3.10;;;9.80;99.90;;;;;;5034696;28;20419;-73
2022/11/19 07:13:07;;;;;;;2.70;2.40;;;9.80;99.90;;;;;;5034040;28;20530;-74
2022/11/19 07:15:33;;;;;;;2.67;2.47;;;9.80;99.90;;;;;;5036433;28;20567;-74
2022/11/19 07:18:00;;;;;;;2.60;2.37;;;9.70;99.90;;;;;;5033510;28;20224;-74
2022/11/19 07:20:26;;;;;;;2.90;2.67;;;9.80;99.90;;;;;;5033719;28;20410;-74
2022/11/19 07:22:51;;;;;;;3.07;2.70;;;9.80;99.90;;;;;;5033264;28;20796;-73
2022/11/19 07:25:17;;;;;;;2.17;1.97;;;9.70;99.90;;;;;;5033971;28;20541;-74
2022/11/19 07:27:45;;;;;;;2.50;2.10;;;9.70;99.90;;;;;;5034409;28;20173;-74
2022/11/19 07:30:11;;;;;;;3.13;2.00;;;9.80;99.90;;;;;;5033970;28;20191;-74
2022/11/19 07:32:36;;;;;;;1.97;1.70;;;9.80;99.90;;;;;;5032280;28;20485;-74
2022/11/19 07:35:02;;;;;;;2.40;2.13;;;9.80;99.90;;;;;;5033249;28;20248;-73
2022/11/19 07:37:28;;;;;;;4.47;1.77;;;9.70;99.90;;;;;;5033685;28;20256;-74
2022/11/19 07:39:53;;;;;;;3.10;2.17;;;9.70;99.90;;;;;;5033611;28;20283;-74
2022/11/19 07:45:04;;;;;;;2.37;2.17;;;9.90;99.90;;;;;;5033485;28;20221;-74
2022/11/19 07:47:29;;;;;;;2.50;1.70;;;10.00;99.90;;;;;;5032594;28;20834;-74
2022/11/19 07:49:55;;;;;;;1.63;1.53;;;10.10;99.90;;;;;;5033100;28;20524;-74
2022/11/19 07:52:20;;;;;;;1.77;1.67;;;10.10;99.90;;;;;;5033506;28;20257;-74
2022/11/19 07:54:46;;;;;;;1.93;1.73;;;10.10;99.90;;;;;;5033130;28;20253;-74
2022/11/19 07:57:12;;;;;;;4.37;2.30;;;10.00;99.90;;;;;;5033184;28;20254;-74
2022/11/19 07:59:38;;;;;;;2.27;1.70;;;10.10;99.90;;;;;;5033418;28;20410;-75
2022/11/19 08:02:03;;;;;;;1.80;1.53;;;10.20;99.90;;;;;;5032993;28;20176;-75
2022/11/19 08:04:29;;;;;;;3.57;1.50;;;10.40;99.90;;;;;;5031765;28;20168;-74
2022/11/19 08:06:55;;;;;;;2.93;1.47;;;10.20;99.90;;;;;;5033085;28;20162;-75
2022/11/19 08:09:20;;;;;;;2.70;1.90;;;10.30;99.90;;;;;;5032891;28;20630;-75
2022/11/19 08:11:46;;;;;;;1.77;1.50;;;10.40;99.90;;;;;;5033115;28;20251;-75
2022/11/19 08:14:12;;;;;;;1.70;1.40;;;10.50;99.90;;;;;;5033235;28;20168;-75
2022/11/19 08:19:23;;;;;;;2.57;1.77;;;10.60;99.90;;;;;;5031628;28;20456;-75
2022/11/19 08:21:48;;;;;;;1.60;1.50;;;10.50;99.90;;;;;;5032801;28;20916;-76
2022/11/19 08:24:18;;;;;;;1.73;1.23;;;10.40;99.90;;;;;;5032775;28;20269;-75
2022/11/19 08:26:44;;;;;;;2.23;1.50;;;10.30;99.90;;;;;;5033242;28;20246;-75
2022/11/19 08:29:12;;;;;;;2.23;1.40;;;10.50;99.90;;;;;;5032894;28;20443;-76
2022/11/19 08:31:38;;;;;;;3.00;2.00;;;10.60;99.90;;;;;;5032442;28;20424;-76
2022/11/19 08:34:04;;;;;;;1.87;1.73;;;10.70;99.90;;;;;;5031974;28;20869;-76
2022/11/19 08:36:29;;;;;;;1.97;1.67;;;10.60;99.90;;;;;;5036230;28;20483;-76
2022/11/19 08:38:57;;;;;;;1.90;1.70;;;10.70;99.90;;;;;;5035519;28;20258;-75
2022/11/19 08:44:07;;;;;;;1.30;1.13;;;10.70;99.90;;;;;;5036325;28;20455;-76
2022/11/19 08:46:32;;;;;;;1.80;1.20;;;10.40;99.90;;;;;;5035291;28;20892;-75
2022/11/19 08:48:58;;;;;;;2.30;1.60;;;10.30;99.90;;;;;;5038966;28;20171;-76
2022/11/19 08:51:23;;;;;;;1.73;1.40;;;10.50;99.90;;;;;;5036792;28;20177;-77
2022/11/19 08:53:52;;;;;;;1.50;1.13;;;10.50;99.90;;;;;;5036484;28;20163;-75
2022/11/19 08:56:18;;;;;;;1.33;1.10;;;10.60;99.90;;;;;;5036636;28;20563;-76
2022/11/19 08:58:44;;;;;;;2.90;1.20;;;10.50;99.90;;;;;;5036743;28;20405;-76
2022/11/19 09:01:12;;;;;;;2.30;1.30;;;10.60;99.90;;;;;;5036483;28;20402;-76
2022/11/19 09:03:38;;;;;;;1.60;1.50;;;10.90;99.90;;;;;;5035827;28;20191;-76
2022/11/19 09:06:04;;;;;;;2.60;1.43;;;10.70;99.90;;;;;;5036152;28;20902;-75
2022/11/19 09:08:30;;;;;;;2.10;1.50;;;10.90;99.90;;;;;;5036298;28;20476;-76
2022/11/19 09:10:56;;;;;;;2.23;1.33;;;10.70;99.90;;;;;;5038713;28;20488;-75
2022/11/19 09:13:21;;;;;;;2.00;1.50;;;10.70;99.90;;;;;;5036815;28;20501;-75
2022/11/19 09:15:48;;;;;;;1.57;1.20;;;10.90;99.90;;;;;;5037186;28;20255;-75
2022/11/19 09:18:14;;;;;;;3.43;1.47;;;10.70;99.90;;;;;;5036507;28;20171;-75
2022/11/19 09:20:39;;;;;;;1.30;1.10;;;10.80;99.90;;;;;;5036895;28;20431;-76
2022/11/19 09:23:05;;;;;;;1.80;1.20;;;10.80;99.90;;;;;;5035793;28;20700;-76
2022/11/19 09:25:32;;;;;;;1.13;1.03;;;11.00;99.90;;;;;;5035876;28;20702;-76
2022/11/19 09:27:57;;;;;;;1.27;1.17;;;11.20;99.90;;;;;;5035853;28;20622;-75
2022/11/19 09:30:23;;;;;;;2.60;1.33;;;11.30;99.90;;;;;;5036344;28;20410;-75
2022/11/19 09:32:48;;;;;;;2.13;1.10;;;11.70;99.90;;;;;;5034740;28;20171;-76
2022/11/19 09:35:14;;;;;;;1.77;1.47;;;11.40;99.90;;;;;;5053988;22;20277;-76
2022/11/19 09:37:39;;;;;;;1.73;1.30;;;11.50;99.90;;;;;;5014458;28;20164;-75
2022/11/19 09:40:08;;;;;;;1.10;1.00;;;11.50;99.90;;;;;;5016408;28;20211;-76
2022/11/19 09:42:42;;;;;;;1.00;0.90;;;11.50;99.90;;;;;;5015737;28;20708;-76
2022/11/19 09:45:26;;;;;;;1.50;1.20;;;11.50;99.90;;;;;;5014480;28;20443;-76
2022/11/19 09:48:02;;;;;;;1.90;1.13;;;11.20;99.90;;;;;;5016228;28;20430;-76
2022/11/19 09:50:33;;;;;;;1.63;1.07;;;11.20;99.90;;;;;;5017441;28;20391;-76
2022/11/19 09:53:11;;;;;;;1.20;1.10;;;11.00;99.90;;;;;;5016096;28;20773;-75
2022/11/19 09:55:40;;;;;;;1.43;1.10;;;10.80;99.90;;;;;;5016422;28;20458;-76
2022/11/19 09:58:11;;;;;;;1.33;1.23;;;11.00;99.90;;;;;;5016295;28;20409;-75
2022/11/19 10:00:36;;;;;;;1.70;1.40;;;11.10;99.90;;;;;;5015891;28;20506;-75
2022/11/19 10:03:13;;;;;;;1.90;1.60;;;11.20;99.90;;;;;;5014058;28;20539;-76
2022/11/19 10:06:13;;;;;;;3.90;3.40;;;11.20;99.90;;;;;;5016381;28;20189;-76
2022/11/19 10:08:38;;;;;;;2.17;1.50;;;11.30;99.90;;;;;;5014491;28;20666;-76
2022/11/19 10:11:07;;;;;;;2.10;1.73;;;11.10;99.90;;;;;;5015310;28;20501;-76
2022/11/19 10:13:45;;;;;;;2.50;1.30;;;11.00;99.90;;;;;;5015706;28;20203;-75
2022/11/19 10:16:11;;;;;;;1.20;1.10;;;10.90;99.90;;;;;;5015297;28;20477;-74
2022/11/19 10:18:55;;;;;;;2.30;1.93;;;10.80;99.90;;;;;;5014923;28;20417;-75
2022/11/19 10:21:49;;;;;;;1.70;1.50;;;11.00;99.90;;;;;;5015325;28;20577;-75
2022/11/19 10:24:33;;;;;;;2.03;1.80;;;11.30;99.90;;;;;;5016204;28;20449;-76
2022/11/19 10:27:09;;;;;;;1.37;1.23;;;11.30;99.90;;;;;;5014154;28;20805;-76
2022/11/19 10:29:39;;;;;;;1.63;1.50;;;11.30;99.90;;;;;;5014059;28;20460;-75
2022/11/19 10:32:29;;;;;;;1.47;1.37;;;11.10;99.90;;;;;;5015742;28;20886;-76
2022/11/19 10:35:00;;;;;;;1.60;1.50;;;11.00;99.90;;;;;;4994778;28;20751;-76
2022/11/19 10:37:32;;;;;;;1.90;1.53;;;11.20;99.90;;;;;;4994986;28;20773;-76
2022/11/19 10:40:11;;;;;;;1.70;1.37;;;11.30;99.90;;;;;;4995055;28;20409;-75
2022/11/19 10:42:48;;;;;;;1.47;1.30;;;11.60;99.90;;;;;;4995240;28;20840;-75
2022/11/19 10:45:18;;;;;;;2.53;1.90;;;11.80;99.90;;;;;;4995226;28;20566;-76
2022/11/19 10:47:50;;;;;;;2.50;1.77;;;12.10;99.90;;;;;;4994590;28;20932;-75
2022/11/19 10:50:18;;;;;;;1.40;1.30;;;12.00;99.90;;;;;;4993719;28;20413;-75
2022/11/19 10:53:15;;;;;;;1.50;1.30;;;11.90;99.90;;;;;;4996007;28;20489;-75
2022/11/19 10:55:45;;;;;;;2.43;1.80;;;11.70;99.90;;;;;;4987055;28;20461;-75
2022/11/19 10:58:21;;;;;;;3.00;1.80;;;11.60;99.90;;;;;;4994797;28;20515;-76
2022/11/19 11:00:50;;;;;;;1.97;1.70;;;11.60;99.90;;;;;;4996294;28;20444;-74
2022/11/19 11:03:35;;;;;;;2.20;2.00;;;11.50;99.90;;;;;;5005299;28;20490;-75
2022/11/19 11:06:05;;;;;;;3.20;1.67;;;11.60;99.90;;;;;;5017737;28;20818;-75
2022/11/19 11:08:31;;;;;;;4.20;1.93;;;11.40;99.90;;;;;;5019150;28;20797;-76
2022/11/19 11:10:58;;;;;;;3.73;1.70;;;11.60;99.90;;;;;;5021813;28;20788;-76
2022/11/19 11:16:23;;;;;;;4.00;1.47;;;11.70;99.90;;;;;;5015370;28;20493;-75
2022/11/19 11:18:52;;;;;;;3.73;2.07;;;11.60;99.90;;;;;;5013973;28;20499;-76
2022/11/19 11:21:28;;;;;;;6.00;1.97;;;11.60;99.90;;;;;;5014447;28;20437;-75
2022/11/19 11:23:54;;;;;;;2.33;1.50;;;11.50;99.90;;;;;;5012660;28;20553;-75
2022/11/19 11:26:23;;;;;;;1.77;1.40;;;11.20;99.90;;;;;;5012514;28;20746;-75
2022/11/19 11:29:04;;;;;;;2.33;1.40;;;11.20;99.90;;;;;;5014045;28;20408;-75
2022/11/19 11:31:34;;;;;;;6.27;1.63;;;11.10;99.90;;;;;;5012379;28;20921;-76
2022/11/19 11:34:01;;;;;;;1.97;1.23;;;11.00;99.90;;;;;;5012706;28;20426;-76
2022/11/19 11:36:29;;;;;;;3.10;1.10;;;11.00;99.90;;;;;;5012258;28;20469;-76
2022/11/19 11:38:58;;;;;;;1.97;1.47;;;11.10;99.90;;;;;;5013467;28;20413;-75
2022/11/19 11:41:41;;;;;;;2.50;1.43;;;11.30;99.90;;;;;;5012221;28;20442;-77
2022/11/19 11:44:18;;;;;;;1.20;1.10;;;11.20;99.90;;;;;;5016478;28;20439;-76
2022/11/19 11:46:46;;;;;;;2.37;1.07;;;11.30;99.90;;;;;;5016539;28;20418;-76
2022/11/19 11:49:29;;;;;;;1.53;1.20;;;11.20;99.90;;;;;;5016904;28;20438;-74
2022/11/19 11:52:25;;;;;;;1.10;1.00;;;11.00;99.90;;;;;;5017448;28;20748;-76
2022/11/19 11:55:06;;;;;;;4.43;1.30;;;11.00;99.90;;;;;;5011945;28;20796;-76
2022/11/19 11:57:34;;;;;;;1.43;1.23;;;10.90;99.90;;;;;;5016162;28;20402;-75
2022/11/19 12:00:21;;;;;;;2.10;1.27;;;10.90;99.90;;;;;;5016288;28;20417;-76
2022/11/19 12:03:09;;;;;;;2.17;1.50;;;11.10;99.90;;;;;;5014929;28;20485;-76
2022/11/19 12:05:40;;;;;;;2.00;1.20;;;10.90;99.90;;;;;;5011650;28;20530;-76
2022/11/19 12:08:11;;;;;;;2.60;1.30;;;10.80;99.90;;;;;;5012939;28;20410;-75
2022/11/19 12:11:09;;;;;;;2.30;1.60;;;10.80;99.90;;;;;;5010480;28;20412;-76
2022/11/19 12:13:49;;;;;;;4.30;1.50;;;10.80;99.90;;;;;;5013087;28;20906;-76
2022/11/19 12:16:33;;;;;;;2.10;1.07;;;10.60;99.90;;;;;;5012522;28;20418;-76
2022/11/19 12:19:08;;;;;;;2.30;1.30;;;10.60;99.90;;;;;;5012062;28;20482;-76
2022/11/19 12:22:04;;;;;;;2.80;1.33;;;10.60;99.90;;;;;;5012681;28;20397;-75
2022/11/19 12:25:07;;;;;;;2.27;1.70;;;10.50;99.90;;;;;;5012463;28;20440;-76
2022/11/19 12:27:58;;;;;;;2.63;1.60;;;10.50;99.90;;;;;;5011254;28;20414;-76
2022/11/19 12:30:40;;;;;;;1.63;1.53;;;10.60;99.90;;;;;;5011327;28;20434;-76
2022/11/19 12:33:23;;;;;;;1.83;1.37;;;10.90;99.90;;;;;;5012096;28;20426;-76
2022/11/19 12:36:07;;;;;;;2.20;1.47;;;10.80;99.90;;;;;;5012718;28;20450;-76
2022/11/19 12:38:48;;;;;;;2.90;1.70;;;10.80;99.90;;;;;;5011315;28;20796;-76
2022/11/19 12:41:58;;;;;;;2.97;1.57;;;10.90;99.90;;;;;;5011386;28;20414;-75
2022/11/19 12:44:38;;;;;;;1.73;1.60;;;11.00;99.90;;;;;;5010316;28;20468;-75
2022/11/19 12:47:51;;;;;;;2.27;1.60;;;11.20;99.90;;;;;;5010712;28;20446;-75
2022/11/19 12:50:42;;;;;;;3.40;1.40;;;11.30;99.90;;;;;;4994262;28;20411;-75
2022/11/19 12:53:26;;;;;;;2.23;2.03;;;10.80;99.90;;;;;;5013030;28;20473;-75
2022/11/19 12:56:01;;;;;;;2.10;1.27;;;10.70;99.90;;;;;;5012466;28;20426;-75
2022/11/19 12:58:55;;;;;;;1.53;1.43;;;10.80;99.90;;;;;;5012724;28;20410;-75
2022/11/19 13:01:25;;;;;;;1.50;1.30;;;10.60;99.90;;;;;;5011195;28;20403;-75
2022/11/19 13:04:11;;;;;;;1.40;1.30;;;10.40;99.90;;;;;;5012001;28;20987;-76
2022/11/19 13:06:36;;;;;;;2.60;1.73;;;10.50;99.90;;;;;;5013603;28;20481;-76
2022/11/19 13:09:14;;;;;;;2.23;1.40;;;10.40;99.90;;;;;;5012632;28;20403;-75
2022/11/19 13:11:48;;;;;;;3.63;1.97;;;10.40;99.90;;;;;;5011252;28;20616;-76
2022/11/19 13:14:30;;;;;;;1.80;1.70;;;10.50;99.90;;;;;;5011293;28;20403;-74
2022/11/19 13:16:58;;;;;;;2.00;1.73;;;10.70;99.90;;;;;;5011033;28;20529;-75
2022/11/19 13:19:30;;;;;;;1.83;1.70;;;10.50;99.90;;;;;;5012058;28;20399;-76
2022/11/19 13:21:57;;;;;;;4.50;2.40;;;10.30;99.90;;;;;;5014851;28;20492;-75
2022/11/19 13:24:26;;;;;;;2.97;1.80;;;10.30;99.90;;;;;;5015942;28;20448;-75
2022/11/19 13:26:54;;;;;;;1.80;1.63;;;10.30;99.90;;;;;;5016533;28;20419;-76
2022/11/19 13:30:02;;;;;;;2.80;1.87;;;10.40;99.90;;;;;;5016389;28;20422;-76
2022/11/19 13:32:37;;;;;;;4.40;1.73;;;10.50;99.90;;;;;;4958194;28;20422;-75